createdAt,value
2018-04-10T00:01:36.332Z,67.00
2018-04-10T00:04:06.796Z,65.70
2018-04-10T00:06:41.894Z,65.50
2018-04-10T00:09:10.045Z,66.50
2018-04-10T00:11:41.166Z,68.80
2018-04-10T00:14:10.345Z,71.40
2018-04-10T00:16:43.515Z,74.10
2018-04-10T00:19:19.399Z,76.70
2018-04-10T00:21:51.412Z,78.30
2018-04-10T00:24:21.542Z,78.90
2018-04-10T00:26:51.639Z,79.70
2018-04-10T00:29:21.423Z,77.50
2018-04-10T00:31:53.483Z,76.10
2018-04-10T00:34:25.551Z,76.60
2018-04-10T00:36:55.309Z,77.90
2018-04-10T00:39:24.602Z,76.40
2018-04-10T00:41:57.365Z,77.40
2018-04-10T00:44:26.345Z,76.80
2018-04-10T00:46:56.218Z,77.20
2018-04-10T00:49:25.056Z,78.30
2018-04-10T00:51:55.251Z,78.60
2018-04-10T00:54:24.231Z,78.40
2018-04-10T00:56:52.722Z,78.30
2018-04-10T00:59:21.689Z,79.50
2018-04-10T01:01:54.680Z,79.90
2018-04-10T01:04:24.970Z,80.80
2018-04-10T01:06:55.708Z,79.60
2018-04-10T01:09:25.597Z,79.70
2018-04-10T01:11:58.818Z,79.50
2018-04-10T01:14:27.041Z,78.20
2018-04-10T01:16:56.049Z,77.50
2018-04-10T01:19:26.835Z,77.70
2018-04-10T01:22:01.674Z,77.00
2018-04-10T01:24:30.744Z,77.50
2018-04-10T01:27:01.414Z,77.70
2018-04-10T01:29:30.380Z,76.00
2018-04-10T01:32:06.153Z,76.30
2018-04-10T01:34:36.103Z,82.10
2018-04-10T01:37:06.955Z,83.20
2018-04-10T01:39:37.166Z,83.60
2018-04-10T01:42:06.859Z,83.60
2018-04-10T01:44:36.505Z,85.70
2018-04-10T01:47:09.921Z,80.10
2018-04-10T01:49:39.179Z,79.80
2018-04-10T01:52:15.099Z,82.80
2018-04-10T01:54:44.748Z,84.70
2018-04-10T01:57:14.817Z,85.80
2018-04-10T01:59:44.998Z,85.10
2018-04-10T02:02:15.622Z,84.60
2018-04-10T02:04:45.757Z,85.20
2018-04-10T02:07:14.252Z,84.20
2018-04-10T02:09:42.728Z,83.90
2018-04-10T02:12:14.773Z,85.90
2018-04-10T02:14:47.240Z,85.90
2018-04-10T02:17:16.454Z,87.50
2018-04-10T02:19:45.084Z,90.10
2018-04-10T02:22:14.894Z,90.90
2018-04-10T02:24:45.052Z,90.20
2018-04-10T02:27:13.823Z,87.20
2018-04-10T02:29:44.056Z,85.50
2018-04-10T02:32:15.708Z,83.50
2018-04-10T02:34:47.298Z,83.10
2018-04-10T02:37:18.039Z,82.60
2018-04-10T02:39:50.613Z,81.60
2018-04-10T02:42:21.485Z,79.50
2018-04-10T02:44:52.602Z,78.80
2018-04-10T02:47:23.423Z,78.80
2018-04-10T02:49:53.243Z,80.50
2018-04-10T02:52:23.390Z,80.40
2018-04-10T02:54:56.040Z,82.00
2018-04-10T02:57:27.735Z,81.40
2018-04-10T02:59:56.424Z,81.10
2018-04-10T03:02:26.856Z,80.20
2018-04-10T03:04:58.079Z,81.00
2018-04-10T03:07:27.292Z,80.20
2018-04-10T03:09:57.386Z,80.70
2018-04-10T03:12:27.467Z,80.20
2018-04-10T03:14:57.488Z,78.60
2018-04-10T03:17:25.647Z,80.00
2018-04-10T03:19:55.188Z,79.30
2018-04-10T03:22:26.211Z,81.30
2018-04-10T03:24:56.899Z,82.90
2018-04-10T03:27:26.132Z,84.40
2018-04-10T03:29:57.553Z,86.00
2018-04-10T03:32:33.717Z,83.90
2018-04-10T03:35:03.500Z,86.00
2018-04-10T03:37:34.221Z,83.40
2018-04-10T03:40:03.851Z,84.70
2018-04-10T03:42:36.869Z,88.00
2018-04-10T03:45:06.435Z,91.70
2018-04-10T03:47:40.676Z,92.40
2018-04-10T03:50:09.495Z,93.50
2018-04-10T03:52:39.356Z,94.10
2018-04-10T03:55:08.089Z,95.10
2018-04-10T03:57:36.985Z,95.40
2018-04-10T04:00:05.527Z,96.30
2018-04-10T04:02:33.740Z,95.40
2018-04-10T04:05:04.645Z,95.60
2018-04-10T04:07:34.076Z,95.30
2018-04-10T04:10:04.102Z,94.80
2018-04-10T04:15:27.768Z,94.50
2018-04-10T04:18:33.679Z,94.80
2018-04-10T04:21:15.704Z,94.60
2018-04-10T04:23:46.184Z,95.30
2018-04-10T04:29:04.747Z,95.70
2018-04-10T04:31:36.140Z,96.00
2018-04-10T04:34:06.458Z,96.90
2018-04-10T04:36:35.838Z,97.30
2018-04-10T04:39:07.327Z,97.30
2018-04-10T04:41:37.929Z,97.60
2018-04-10T04:44:10.406Z,97.90
2018-04-10T04:46:39.282Z,97.30
2018-04-10T04:49:09.287Z,96.90
2018-04-10T04:51:44.895Z,95.80
2018-04-10T04:54:14.398Z,96.00
2018-04-10T04:56:45.155Z,96.70
2018-04-10T04:59:17.765Z,97.30
2018-04-10T05:01:53.948Z,97.30
2018-04-10T05:04:25.276Z,97.50
2018-04-10T05:06:56.502Z,97.40
2018-04-10T05:09:29.924Z,97.50
2018-04-10T05:12:04.727Z,97.30
2018-04-10T05:14:35.504Z,96.70
2018-04-10T05:17:07.168Z,96.10
2018-04-10T05:19:37.868Z,96.10
2018-04-10T05:22:09.456Z,92.50
2018-04-10T05:24:38.092Z,92.40
2018-04-10T05:27:08.686Z,94.30
2018-04-10T05:29:38.043Z,95.40
2018-04-10T05:32:10.271Z,96.40
2018-04-10T05:34:41.436Z,97.20
2018-04-10T05:37:11.162Z,97.50
2018-04-10T05:39:41.119Z,96.40
2018-04-10T05:42:15.876Z,95.40
2018-04-10T05:44:48.300Z,95.50
2018-04-10T05:47:23.316Z,95.60
2018-04-10T05:49:56.972Z,96.30
2018-04-10T05:52:28.869Z,97.00
2018-04-10T05:54:59.857Z,95.80
2018-04-10T05:57:32.194Z,95.40
2018-04-10T06:00:06.530Z,94.30
2018-04-10T06:02:41.701Z,94.30
2018-04-10T06:05:13.727Z,93.30
2018-04-10T06:07:50.633Z,92.80
2018-04-10T06:10:23.914Z,90.30
2018-04-10T06:15:39.174Z,91.10
2018-04-10T06:18:08.975Z,90.70
2018-04-10T06:20:38.741Z,90.20
2018-04-10T06:23:09.216Z,89.80
2018-04-10T06:28:25.330Z,87.60
2018-04-10T06:31:05.816Z,88.50
2018-04-10T06:33:35.635Z,87.10
2018-04-10T06:36:03.896Z,86.50
2018-04-10T06:38:34.573Z,85.50
2018-04-10T06:41:04.631Z,85.20
2018-04-10T06:43:33.905Z,82.80
2018-04-10T06:46:03.293Z,81.50
2018-04-10T06:48:32.183Z,79.10
2018-04-10T06:51:00.699Z,76.80
2018-04-10T06:53:30.721Z,75.70
2018-04-10T06:55:58.908Z,75.80
2018-04-10T06:58:27.277Z,74.70
2018-04-10T07:00:58.118Z,73.30
2018-04-10T07:03:27.536Z,71.60
2018-04-10T07:05:57.207Z,70.70
2018-04-10T07:08:25.592Z,70.00
2018-04-10T07:10:56.638Z,68.70
2018-04-10T07:13:25.404Z,68.10
2018-04-10T07:15:54.445Z,67.20
2018-04-10T07:18:22.598Z,67.10
2018-04-10T07:20:52.611Z,64.90
2018-04-10T07:23:20.817Z,60.90
2018-04-10T07:25:49.744Z,60.20
2018-04-10T07:28:18.900Z,61.10
2018-04-10T07:30:47.143Z,59.40
2018-04-10T07:33:15.976Z,58.80
2018-04-10T07:35:45.618Z,58.00
2018-04-10T07:38:13.824Z,59.70
2018-04-10T07:40:42.012Z,59.70
2018-04-10T07:43:10.192Z,60.30
2018-04-10T07:45:38.347Z,60.80
2018-04-10T07:48:06.503Z,59.60
2018-04-10T07:50:35.431Z,59.90
2018-04-10T07:53:03.579Z,59.30
2018-04-10T07:55:32.504Z,61.10
2018-04-10T07:58:00.656Z,59.10
2018-04-10T08:00:28.797Z,58.20
2018-04-10T08:02:58.023Z,54.70
2018-04-10T08:05:26.266Z,55.70
2018-04-10T08:07:54.435Z,55.90
2018-04-10T08:10:22.712Z,56.10
2018-04-10T08:12:50.860Z,55.90
2018-04-10T08:15:19.017Z,54.30
2018-04-10T08:17:47.158Z,55.30
2018-04-10T08:20:15.772Z,51.90
2018-04-10T08:22:44.488Z,51.40
2018-04-10T08:25:12.635Z,48.40
2018-04-10T08:27:40.791Z,49.00
2018-04-10T08:30:08.940Z,48.80
2018-04-10T08:32:37.137Z,47.00
2018-04-10T08:35:05.281Z,44.50
2018-04-10T08:37:33.437Z,44.40
2018-04-10T08:40:03.100Z,44.70
2018-04-10T08:42:32.326Z,44.60
2018-04-10T08:45:00.480Z,44.60
2018-04-10T08:47:28.639Z,45.50
2018-04-10T08:49:56.802Z,47.00
2018-04-10T08:52:31.621Z,46.70
2018-04-10T08:54:59.765Z,46.80
2018-04-10T08:57:33.928Z,48.00
2018-04-10T09:00:02.839Z,44.30
2018-04-10T09:02:30.992Z,41.10
2018-04-10T09:04:59.142Z,42.80
2018-04-10T09:07:27.358Z,42.90
2018-04-10T09:09:55.512Z,41.80
2018-04-10T09:12:24.103Z,41.50
2018-04-10T09:14:52.252Z,40.40
2018-04-10T09:17:21.555Z,39.00
2018-04-10T09:19:49.743Z,38.40
2018-04-10T09:22:22.532Z,38.70
2018-04-10T09:24:50.677Z,37.10
2018-04-10T09:27:25.059Z,36.30
2018-04-10T09:30:00.033Z,35.00
2018-04-10T09:32:42.170Z,35.40
2018-04-10T09:35:13.733Z,34.00
2018-04-10T09:37:53.426Z,35.50
2018-04-10T09:40:22.919Z,34.40
2018-04-10T09:42:53.326Z,34.60
2018-04-10T09:45:22.939Z,35.10
2018-04-10T09:47:55.185Z,35.10
2018-04-10T09:50:23.338Z,35.60
2018-04-10T09:52:51.491Z,36.10
2018-04-10T09:55:21.260Z,34.20
2018-04-10T09:57:53.077Z,33.90
2018-04-10T10:00:36.224Z,32.60
2018-04-10T10:03:09.898Z,30.40
2018-04-10T10:05:38.258Z,31.00
2018-04-10T10:08:07.728Z,30.40
2018-04-10T10:10:37.391Z,31.10
2018-04-10T10:13:08.566Z,30.80
2018-04-10T10:15:40.303Z,28.60
2018-04-10T10:18:08.454Z,27.90
2018-04-10T10:20:36.611Z,29.30
2018-04-10T10:23:04.772Z,28.90
2018-04-10T10:25:32.906Z,29.50
2018-04-10T10:28:01.047Z,29.10
2018-04-10T10:30:29.251Z,29.10
2018-04-10T10:32:58.162Z,28.40
2018-04-10T10:35:26.333Z,29.30
2018-04-10T10:37:54.495Z,27.30
2018-04-10T10:40:22.671Z,27.50
2018-04-10T10:42:50.825Z,27.00
2018-04-10T10:45:19.756Z,26.30
2018-04-10T10:47:47.911Z,25.80
2018-04-10T10:50:16.067Z,25.70
2018-04-10T10:52:46.166Z,26.00
2018-04-10T10:55:15.147Z,25.90
2018-04-10T10:57:43.299Z,25.00
2018-04-10T11:00:11.862Z,24.40
2018-04-10T11:02:45.414Z,24.00
2018-04-10T11:05:18.513Z,24.90
2018-04-10T11:07:46.959Z,24.80
2018-04-10T11:10:18.185Z,25.80
2018-04-10T11:12:46.700Z,25.30
2018-04-10T11:15:15.439Z,24.90
2018-04-10T11:17:44.906Z,24.40
2018-04-10T11:20:13.084Z,24.90
2018-04-10T11:22:41.919Z,24.70
2018-04-10T11:25:11.122Z,23.70
2018-04-10T11:27:39.896Z,24.10
2018-04-10T11:30:09.164Z,24.70
2018-04-10T11:32:39.700Z,23.50
2018-04-10T11:35:09.284Z,24.20
2018-04-10T11:37:37.521Z,24.20
2018-04-10T11:40:06.958Z,24.40
2018-04-10T11:42:36.210Z,24.10
2018-04-10T11:45:04.384Z,23.60
2018-04-10T11:47:32.549Z,23.10
2018-04-10T11:50:01.873Z,21.60
2018-04-10T11:52:30.145Z,22.60
2018-04-10T11:54:58.311Z,22.10
2018-04-10T11:57:26.480Z,21.60
2018-04-10T11:59:54.647Z,21.90
2018-04-10T12:02:25.488Z,22.20
2018-04-10T12:04:53.709Z,22.70
2018-04-10T12:07:23.340Z,22.00
2018-04-10T12:09:53.526Z,21.90
2018-04-10T12:12:22.132Z,21.40
2018-04-10T12:14:50.288Z,20.80
2018-04-10T12:17:19.533Z,20.80
2018-04-10T12:19:48.494Z,20.40
2018-04-10T12:22:18.704Z,19.60
2018-04-10T12:24:47.308Z,19.60
2018-04-10T12:27:15.546Z,19.90
2018-04-10T12:29:43.830Z,20.30
2018-04-10T12:32:13.948Z,21.20
2018-04-10T12:34:43.052Z,21.90
2018-04-10T12:37:12.687Z,21.00
2018-04-10T12:39:40.935Z,21.40
2018-04-10T12:42:09.218Z,20.90
2018-04-10T12:44:37.430Z,21.20
2018-04-10T12:47:05.665Z,21.30
2018-04-10T12:49:34.186Z,20.70
2018-04-10T12:52:02.567Z,20.00
2018-04-10T12:54:30.860Z,19.60
2018-04-10T12:56:59.805Z,19.80
2018-04-10T12:59:28.065Z,19.50
2018-04-10T13:01:57.010Z,19.10
2018-04-10T13:04:25.636Z,20.10
2018-04-10T13:06:54.558Z,19.00
2018-04-10T13:09:24.075Z,18.50
2018-04-10T13:11:52.444Z,19.80
2018-04-10T13:14:23.672Z,19.30
2018-04-10T13:16:52.713Z,18.90
2018-04-10T13:19:20.910Z,18.70
2018-04-10T13:21:49.611Z,18.40
2018-04-10T13:24:18.454Z,18.80
2018-04-10T13:26:46.812Z,18.30
2018-04-10T13:29:15.060Z,17.50
2018-04-10T13:31:43.379Z,16.50
2018-04-10T13:34:12.333Z,16.90
2018-04-10T13:36:40.520Z,16.40
2018-04-10T13:39:08.837Z,15.80
2018-04-10T13:41:41.502Z,16.60
2018-04-10T13:44:13.149Z,15.80
2018-04-10T13:46:41.461Z,14.10
2018-04-10T13:49:09.709Z,13.30
2018-04-10T13:51:38.948Z,13.40
2018-04-10T13:54:07.103Z,11.00
2018-04-10T13:56:35.282Z,11.00
2018-04-10T13:59:03.443Z,10.40
2018-04-10T14:01:31.640Z,10.40
2018-04-10T14:03:59.820Z,10.10
2018-04-10T14:06:27.971Z,9.60
2018-04-10T14:08:56.879Z,9.10
2018-04-10T14:11:25.142Z,9.90
2018-04-10T14:13:53.302Z,10.50
2018-04-10T14:16:21.474Z,11.70
2018-04-10T14:18:49.639Z,11.90
2018-04-10T14:21:21.774Z,12.50
2018-04-10T14:23:50.035Z,14.00
2018-04-10T14:26:21.584Z,15.20
2018-04-10T14:28:50.000Z,15.30
2018-04-10T14:31:21.768Z,16.20
2018-04-10T14:33:52.830Z,17.90
2018-04-10T14:36:23.047Z,18.10
2018-04-10T14:38:51.683Z,18.10
2018-04-10T14:41:20.101Z,18.10
2018-04-10T14:43:50.003Z,19.00
2018-04-10T14:46:18.196Z,18.90
2018-04-10T14:48:46.872Z,18.90
2018-04-10T14:51:17.294Z,18.60
2018-04-10T14:53:45.852Z,19.50
2018-04-10T14:56:14.018Z,19.90
2018-04-10T14:58:42.578Z,19.80
2018-04-10T15:01:13.833Z,20.20
2018-04-10T15:03:42.247Z,20.30
2018-04-10T15:06:10.954Z,20.60
2018-04-10T15:08:39.801Z,20.60
2018-04-10T15:11:08.027Z,21.20
2018-04-10T15:13:36.277Z,22.00
2018-04-10T15:16:04.469Z,25.20
2018-04-10T15:18:32.611Z,28.60
2018-04-10T15:21:02.658Z,33.30
2018-04-10T15:23:30.832Z,35.20
2018-04-10T15:25:59.024Z,39.70
2018-04-10T15:28:27.384Z,42.10
2018-04-10T15:30:56.644Z,42.00
2018-04-10T15:33:24.799Z,43.20
2018-04-10T15:35:52.980Z,48.20
2018-04-10T15:38:21.234Z,54.60
2018-04-10T15:40:50.166Z,62.20
2018-04-10T15:43:18.443Z,65.70
2018-04-10T15:45:47.287Z,72.80
2018-04-10T15:48:15.447Z,72.90
2018-04-10T15:50:46.391Z,77.90
2018-04-10T15:53:14.547Z,85.10
2018-04-10T15:55:43.588Z,88.50
2018-04-10T15:58:12.499Z,91.90
2018-04-10T16:00:41.824Z,96.20
2018-04-10T16:03:09.985Z,99.70
2018-04-10T16:05:38.190Z,99.10
2018-04-10T16:08:06.415Z,99.90
2018-04-10T16:10:34.619Z,99.90
2018-04-10T16:13:02.893Z,99.90
2018-04-10T16:15:31.082Z,97.20
2018-04-10T16:18:00.301Z,97.50
2018-04-10T16:20:28.438Z,99.90
2018-04-10T16:22:56.589Z,99.90
2018-04-10T16:25:25.376Z,99.90
2018-04-10T16:27:56.301Z,99.90
2018-04-10T16:30:26.041Z,98.50
2018-04-10T16:32:54.182Z,99.40
2018-04-10T16:35:23.240Z,99.90
2018-04-10T16:37:51.399Z,99.30
2018-04-10T16:40:20.215Z,99.20
2018-04-10T16:42:48.423Z,98.30
2018-04-10T16:45:16.588Z,98.20
2018-04-10T16:47:44.762Z,96.30
2018-04-10T16:50:14.918Z,98.80
2018-04-10T16:52:44.803Z,97.40
2018-04-10T16:55:15.737Z,98.60
2018-04-10T16:57:44.946Z,99.50
2018-04-10T17:00:13.967Z,99.50
2018-04-10T17:02:47.186Z,97.00
2018-04-10T17:05:15.344Z,94.90
2018-04-10T17:07:48.388Z,97.40
2018-04-10T17:10:17.001Z,97.40
2018-04-10T17:12:45.375Z,98.00
2018-04-10T17:15:16.246Z,96.90
2018-04-10T17:17:44.784Z,98.50
2018-04-10T17:20:25.271Z,98.30
2018-04-10T17:22:54.304Z,98.20
2018-04-10T17:25:24.726Z,98.50
2018-04-10T17:27:52.890Z,98.40
2018-04-10T17:30:21.811Z,99.40
2018-04-10T17:32:50.005Z,99.90
2018-04-10T17:35:20.761Z,99.90
2018-04-10T17:37:49.159Z,99.90
2018-04-10T17:40:17.688Z,98.70
2018-04-10T17:42:49.357Z,97.30
2018-04-10T17:45:19.723Z,97.50
2018-04-10T17:47:48.971Z,96.70
2018-04-10T17:50:17.147Z,97.20
2018-04-10T17:52:45.317Z,97.30
2018-04-10T17:55:14.380Z,95.50
2018-04-10T17:57:43.699Z,94.80
2018-04-10T18:00:12.663Z,98.70
2018-04-10T18:02:41.920Z,96.30
2018-04-10T18:05:10.231Z,97.90
2018-04-10T18:07:39.707Z,95.40
2018-04-10T18:10:08.045Z,95.60
2018-04-10T18:12:40.597Z,95.60
2018-04-10T18:15:09.380Z,99.50
2018-04-10T18:17:38.402Z,96.80
2018-04-10T18:20:07.166Z,95.70
2018-04-10T18:22:37.710Z,97.40
2018-04-10T18:25:06.773Z,97.30
2018-04-10T18:27:35.782Z,97.10
2018-04-10T18:30:06.525Z,98.50
2018-04-10T18:35:31.713Z,97.20
2018-04-10T18:38:00.012Z,92.70
2018-04-10T18:40:29.549Z,94.70
2018-04-10T18:42:58.590Z,95.70
2018-04-10T18:45:29.296Z,95.80
2018-04-10T18:47:58.829Z,96.70
2018-04-10T18:50:27.055Z,98.90
2018-04-10T18:52:55.203Z,99.90
2018-04-10T18:55:43.712Z,99.60
2018-04-10T18:58:11.921Z,98.50
2018-04-10T19:00:40.115Z,97.80
2018-04-10T19:03:08.577Z,97.60
2018-04-10T19:05:36.745Z,98.50
2018-04-10T19:08:04.911Z,95.80
2018-04-10T19:10:33.084Z,93.50
2018-04-10T19:13:01.485Z,96.30
2018-04-10T19:15:29.672Z,96.30
2018-04-10T19:17:57.869Z,96.10
2018-04-10T19:20:26.044Z,95.40
2018-04-10T19:22:54.262Z,96.90
2018-04-10T19:25:22.426Z,97.70
2018-04-10T19:27:50.605Z,97.60
2018-04-10T19:30:18.792Z,98.30
2018-04-10T19:32:47.342Z,99.40
2018-04-10T19:35:15.938Z,99.40
2018-04-10T19:37:44.822Z,98.90
2018-04-10T19:40:13.722Z,98.40
2018-04-10T19:42:43.642Z,97.60
2018-04-10T19:45:12.302Z,98.20
2018-04-10T19:50:11.778Z,98.40
2018-04-10T19:52:40.015Z,98.00
2018-04-10T19:55:09.356Z,97.40
2018-04-10T19:57:37.684Z,97.40
2018-04-10T20:00:05.875Z,97.50
2018-04-10T20:02:34.359Z,97.50
2018-04-10T20:05:02.505Z,97.10
2018-04-10T20:07:31.808Z,96.70
2018-04-10T20:09:59.983Z,93.40
2018-04-10T20:12:28.257Z,95.00
2018-04-10T20:14:58.716Z,94.30
2018-04-10T20:17:30.105Z,94.80
2018-04-10T20:19:59.236Z,96.40
2018-04-10T20:22:35.251Z,97.30
2018-04-10T20:25:07.705Z,97.60
2018-04-10T20:27:36.906Z,97.00
2018-04-10T20:30:06.236Z,97.70
2018-04-10T20:32:38.105Z,98.20
2018-04-10T20:35:06.562Z,98.30
2018-04-10T20:37:35.056Z,97.40
2018-04-10T20:40:03.750Z,96.50
2018-04-10T20:42:40.697Z,94.00
2018-04-10T20:45:10.625Z,95.40
2018-04-10T20:47:38.801Z,95.30
2018-04-10T20:50:07.023Z,96.70
2018-04-10T20:52:36.596Z,96.60
2018-04-10T20:55:06.488Z,97.60
2018-04-10T20:57:36.263Z,97.40
2018-04-10T21:00:04.865Z,94.60
2018-04-10T21:02:35.297Z,95.50
2018-04-10T21:05:06.262Z,95.90
2018-04-10T21:07:36.806Z,97.30
2018-04-10T21:10:06.293Z,97.30
2018-04-10T21:12:37.501Z,97.30
2018-04-10T21:15:07.904Z,98.20
2018-04-10T21:17:37.692Z,98.80
2018-04-10T21:20:07.446Z,99.70
2018-04-10T21:22:37.875Z,99.90
2018-04-10T21:25:07.372Z,99.90
2018-04-10T21:27:35.732Z,99.90
2018-04-10T21:30:03.918Z,99.10
2018-04-10T21:32:38.294Z,99.10
2018-04-10T21:35:11.153Z,98.40
2018-04-10T21:37:39.434Z,97.90
2018-04-10T21:40:08.570Z,98.00
2018-04-10T21:42:49.329Z,97.70
2018-04-10T21:45:21.585Z,97.20
2018-04-10T21:47:49.782Z,96.10
2018-04-10T21:50:21.206Z,95.50
2018-04-10T21:52:49.791Z,96.10
2018-04-10T21:55:18.059Z,96.90
2018-04-10T21:57:47.648Z,96.30
2018-04-10T22:00:17.015Z,97.00
2018-04-10T22:02:46.846Z,97.40
2018-04-10T22:05:16.081Z,97.70
2018-04-10T22:07:44.276Z,97.60
2018-04-10T22:10:14.736Z,95.80
2018-04-10T22:12:43.526Z,96.90
2018-04-10T22:15:13.358Z,95.80
2018-04-10T22:17:42.159Z,96.10
2018-04-10T22:20:10.496Z,94.90
2018-04-10T22:22:42.768Z,94.30
2018-04-10T22:25:12.435Z,95.00
2018-04-10T22:27:41.711Z,95.10
2018-04-10T22:30:10.440Z,96.10
2018-04-10T22:35:26.959Z,95.90
2018-04-10T22:37:56.495Z,95.00
2018-04-10T22:40:25.103Z,93.00
2018-04-10T22:42:54.535Z,93.80
2018-04-10T22:45:26.476Z,94.90
2018-04-10T22:47:59.875Z,92.90
2018-04-10T22:50:28.960Z,93.50
2018-04-10T22:52:59.077Z,94.40
2018-04-10T22:55:28.360Z,95.60
2018-04-10T22:57:57.445Z,97.00
2018-04-10T23:00:48.834Z,96.50
2018-04-10T23:05:51.782Z,95.80
2018-04-10T23:08:22.396Z,95.30
2018-04-10T23:10:53.172Z,96.80
2018-04-10T23:13:22.380Z,97.00
2018-04-10T23:15:52.050Z,96.90
2018-04-10T23:18:21.597Z,97.10
2018-04-10T23:20:56.656Z,96.40
2018-04-10T23:23:27.017Z,96.60
2018-04-10T23:25:55.974Z,96.30
2018-04-10T23:28:24.963Z,95.80
2018-04-10T23:31:02.462Z,96.30
2018-04-10T23:33:32.202Z,97.80
2018-04-10T23:36:06.751Z,98.60
2018-04-10T23:38:36.619Z,98.60
2018-04-10T23:41:08.291Z,99.00
2018-04-10T23:43:38.204Z,98.50
2018-04-10T23:46:07.730Z,99.20
2018-04-10T23:48:40.985Z,99.40
2018-04-10T23:51:09.275Z,99.30
2018-04-10T23:53:39.355Z,99.90
2018-04-10T23:56:09.513Z,99.90
2018-04-10T23:58:46.680Z,99.80
